Reserve, Indiana
Current Conditions -  °F | °C
As of 2:15 PM on Monday 20 Oct 2014 (Local Time) from KPRG Reporting Station
Clear Clear  
Wind Chill: 69°   Ceiling: Unl
Heat Index: 69°   Visibility: 10mi
Dew Point: 47°   Wind: 13mph
Humidity: 45%   Direction: 290°WNW
Pressure: 29.87"   Gusts: 17mph
Location:  39.8207°N, 87.3335°W
Report Text: KPRG 201815Z AUTO 29011G15KT 10SM CLR 21/08 A2987 RMK AO2 T02070082
Loading
Personal Weather Stations






























Interactive Weather Map
Tropical Storm Tracking
New forecast layout! Learn more

10-Day Weather Forecast

Advertisements
Track Severe Weather on mobile